ホバート国際空港の過去48時間の天気

ホバート国際空港 (Hobart Airport)

現在時刻: 9/23 07:23 AEST (9/22 21:23 UTC) 以下の時間は現地時間です。

過去48時間のMETAR気象情報
時間 風向 風速(m/s) 視程 気温(℃) 湿度(%) 気圧(hPa) 天気現象
23 07:00 北西 3 10km以上 6 70 1018
23 06:30 北西 4 10km以上 6 70 1018
23 06:00 北西 5 10km以上 6 70 1018
23 05:30 北北西 3 10km以上 6 70 1018
23 05:00 南南東 2 10km以上 5 75 1018
23 04:30 西 1 10km以上 6 70 1018
23 04:00 3 10km以上 7 66 1018
23 03:30 3 10km以上 6 70 1018
23 03:00 北北西 3 10km以上 7 66 1018
23 02:30 北西 5 10km以上 7 66 1018
23 02:00 北北西 5 10km以上 7 66 1018
23 01:30 北北西 4 10km以上 7 66 1018
23 01:00 3 10km以上 7 70 1018
23 00:30 4 10km以上 7 70 1018
23 00:00 北北西 4 10km以上 8 61 1018
22 23:30 北北西 4 10km以上 7 66 1019
22 23:00 北西 3 10km以上 8 61 1019
22 22:30 北北西 4 10km以上 8 61 1019
22 22:00 北北西 3 10km以上 8 66 1019
22 21:30 北北西 5 10km以上 9 57 1019
22 21:00 北北西 4 10km以上 9 57 1019
22 20:30 北西 3 10km以上 9 57 1019
22 20:00 西北西 4 10km以上 9 53 1018
22 19:30 西南西 4 10km以上 9 50 1018
22 19:00 西 4 10km以上 10 46 1018
22 18:30 西 5 10km以上 10 46 1017
22 18:00 南西 4 10km以上 9 62 1017 周辺でしゅう雨
22 17:30 南西 6 10km以上 11 54 1017 周辺でしゅう雨
22 17:00 5 10km以上 10 54 1017
22 16:30 南南西 6 10km以上 10 54 1016
22 16:00 西 6 10km以上 13 35 1016
22 15:30 西 6 10km以上 13 33 1016 周辺でしゅう雨
22 15:00 西 9 10km以上 12 38 1016 周辺でしゅう雨
22 14:30 西北西 9 10km以上 13 30 1015 周辺でしゅう雨
22 14:00 西 9 10km以上 14 33 1015
22 13:30 西南西 8 10km以上 13 44 1015
22 13:00 西北西 8 10km以上 14 31 1015
22 12:30 西北西 8 10km以上 14 31 1015
22 12:00 北西 8 10km以上 13 33 1015
22 11:30 西北西 9 10km以上 13 30 1015
22 11:23 北西 8 10km以上 13 35 1015
22 11:00 西北西 8 10km以上 13 38 1015
22 10:30 西北西 8 10km以上 11 47 1015
22 10:00 西北西 8 10km以上 12 41 1015
22 09:30 西 7 10km以上 11 43 1015
22 09:00 西北西 7 10km以上 11 47 1015
22 08:30 北西 7 10km以上 10 50 1015
22 08:00 西北西 7 10km以上 10 50 1015
22 07:30 北北西 5 10km以上 8 66 1014
22 07:00 北西 5 10km以上 8 61 1014
22 06:30 北北西 4 10km以上 8 61 1014
22 06:00 4 10km以上 7 66 1013
22 05:30 北北西 4 10km以上 7 66 1013
22 05:00 北北西 4 10km以上 8 61 1012
22 04:30 北北西 4 10km以上 7 70 1012
22 04:00 北西 4 10km以上 8 61 1011
22 03:30 西北西 6 10km以上 9 57 1011
22 03:00 西北西 8 10km以上 9 53 1010
22 02:30 西北西 9 10km以上 9 53 1010
22 02:00 西北西 9 10km以上 9 53 1009
22 01:30 西北西 9 10km以上 9 53 1009
22 01:00 西北西 9 10km以上 10 50 1009
22 00:30 西北西 7 10km以上 10 50 1009
22 00:00 西北西 8 10km以上 10 50 1009
21 23:30 西北西 9 10km以上 10 50 1008
21 23:02 北西 9 10km以上 10 50 1007
21 22:30 北西 11 10km以上 11 47 1006
21 22:15 北北西 8 10km以上 11 47 1006
21 22:00 北北西 7 10km以上 11 47 1006
21 21:30 北西 13 10km以上 12 44 1005
21 21:00 北西 9 10km以上 12 47 1004
21 20:30 北北西 9 10km以上 13 54 1002
21 20:00 北北西 13 10km以上 15 48 1001
21 19:49 北北西 8 10km以上 16 45 1000
21 19:30 7 10km以上 15 63 999
21 19:00 8 10km以上 15 63 998
21 18:42 9 10km以上 15 59 998
21 18:30 10 10km以上 16 55 998
21 18:00 10 10km以上 16 55 999
21 17:32 8 10km以上 17 55 999
21 17:06 10 10km以上 18 60 1000 弱いしゅう雨
21 16:30 11 10km以上 18 60 999
21 16:00 9 10km以上 18 56 999
21 15:30 9 10km以上 19 56 999 周辺でしゅう雨
21 15:10 9 10km以上 19 56 1000 周辺でしゅう雨
21 15:00 9 10km以上 19 60 1001 弱いしゅう雨
21 14:46 8 10km以上 20 56 1001 弱いしゅう雨
21 14:30 北北西 7 10km以上 20 60 1001 周辺でしゅう雨
21 14:11 北北西 8 10km以上 20 60 1001 周辺でしゅう雨
21 14:00 北北東 4 10km以上 20 60 1001
21 13:30 北西 2 10km以上 18 68 1001
21 13:00 南南東 2 10km以上 16 77 1002
21 12:30 南南東 3 10km以上 16 77 1003
21 12:00 南東 4 10km以上 16 77 1004
21 11:30 南東 3 10km以上 17 72 1005
21 11:00 2 10km以上 16 77 1005
21 10:30 2 10km以上 16 77 1006
21 10:00 南東 2 10km以上 15 82 1006
21 09:30 東北東 1 10km以上 15 82 1007
21 09:00 南東 2 10km以上 15 77 1007
21 08:30 北東 2 10km以上 14 88 1007
21 08:00 3 10km以上 14 82 1008
21 07:30 3 10km以上 14 82 1008
YMHB 222100Z 31005KT 9999 FEW044 BKN180 06/01 Q1018 RF00.0/000.0
YMHB 222030Z 31007KT 9999 FEW044 SCT190 06/01 Q1018 RF00.0/000.0
YMHB 222000Z 32009KT 9999 FEW042 BKN190 06/01 Q1018 RF00.0/000.0
YMHB 221930Z AUTO 33006KT 290V360 9999 // NCD 06/01 Q1018 RF00.0/000.0
YMHB 221900Z AUTO 15003KT 9999 // NCD 05/01 Q1018 RF00.0/000.0
YMHB 221830Z AUTO 28002KT 9999 // NCD 06/01 Q1018 RF00.0/000.0
YMHB 221800Z AUTO 36005KT 9999 // NCD 07/01 Q1018 RF00.0/000.0
YMHB 221730Z AUTO 01005KT 9999 // SCT125 06/01 Q1018 RF00.0/000.0
YMHB 221700Z AUTO 34005KT 9999 // NCD 07/01 Q1018 RF00.0/000.0
YMHB 221630Z AUTO 32009KT 9999 // NCD 07/01 Q1018 RF00.0/000.0
YMHB 221600Z AUTO 33009KT 9999 // NCD 07/01 Q1018 RF00.0/000.0
YMHB 221530Z AUTO 34007KT 9999 // NCD 07/01 Q1018 RF00.0/000.0
YMHB 221500Z AUTO 35005KT 9999 // NCD 07/02 Q1018 RF00.0/000.0
YMHB 221430Z AUTO 36007KT 9999 // NCD 07/02 Q1018 RF00.0/000.0
YMHB 221400Z AUTO 34008KT 9999 // NCD 08/01 Q1018 RF00.0/000.0
YMHB 221330Z 34007KT 9999 FEW040 SCT135 07/01 Q1019 RF00.0/000.0
YMHB 221300Z 31006KT 9999 FEW045 SCT135 08/01 Q1019 RF00.0/000.0
YMHB 221230Z 33007KT 9999 FEW045 SCT135 BKN210 08/01 Q1019 RF00.0/000.0
YMHB 221200Z 33006KT 9999 FEW045 SCT135 BKN210 08/02 Q1019 RF00.0/000.0
YMHB 221130Z 33009KT 9999 FEW045 BKN215 09/01 Q1019 RF00.0/000.0
YMHB 221100Z 33007KT 9999 FEW042 BKN210 09/01 Q1019 RF00.0/000.0
YMHB 221030Z 32005KT 9999 FEW040 SCT060 BKN215 09/01 Q1019 RF00.0/000.0
YMHB 221000Z 29007KT 9999 FEW042 SCT063 BKN200 09/00 Q1018 RF00.0/000.0
YMHB 220930Z 25007KT 9999 FEW047 SCT067 BKN195 09/M01 Q1018
YMHB 220900Z 26008KT 9999 FEW047 BKN205 10/M01 Q1018 RF00.0/000.0
YMHB 220830Z 26010KT 9999 SCT053 SCT205 10/M01 Q1017 RF00.0/000.0
YMHB 220800Z 22007KT 9999 VCSH FEW040 SCT053 09/02 Q1017 RF00.0/000.0
YMHB 220730Z 22012KT 9999 VCSH FEW040 BKN050 11/02 Q1017 RF00.0/000.0
YMHB 220700Z 19009KT 9999 FEW040 BKN053 10/01 Q1017 RF00.0/000.0
YMHB 220630Z 20011KT 9999 FEW040 BKN055 10/01 Q1016 RF00.0/000.0
YMHB 220600Z 28011KT 9999 FEW040 BKN055 13/M02 Q1016 RF00.0/000.0
YMHB 220530Z 26012KT 240V310 9999 VCSH FEW040 SCT048 13/M03 Q1016
YMHB 220500Z 28018KT 9999 VCSH FEW040 SCT046 12/M02 Q1016 RF00.0/000.0
YMHB 220430Z 30017G28KT 9999 VCSH FEW040 SCT055 13/M04 Q1015
YMHB 220400Z 28017KT 9999 SCT055 SCT078 14/M02 Q1015 RF00.0/000.0
YMHB 220330Z 25016KT 9999 SCT055 BKN070 13/01 Q1015 RF00.0/000.0
YMHB 220300Z 29015KT 9999 FEW055 BKN090 14/M03 Q1015 RF00.0/000.0
YMHB 220230Z 30015KT 9999 FEW055 SCT065 14/M03 Q1015 RF00.0/000.0
YMHB 220200Z 31015KT 9999 FEW050 SCT060 13/M03 Q1015 RF00.0/000.0
YMHB 220130Z 29018KT 9999 SCT048 13/M04 Q1015
YMHB 220123Z 31016G27KT 9999 SCT048 13/M02 Q1015 RF00.0/000.0
YMHB 220100Z 30015KT 9999 FEW047 13/M01 Q1015
YMHB 220030Z 30016KT 9999 FEW045 11/M00 Q1015
YMHB 220000Z 30016KT 9999 FEW045 SCT050 12/M01 Q1015 RF00.0/000.0
YMHB 212330Z 28013KT 9999 FEW040 SCT045 11/M01 Q1015 RF00.0/000.0
YMHB 212300Z 30014KT 9999 FEW038 11/M00 Q1015
YMHB 212230Z 31013KT 9999 FEW037 SCT041 10/00 Q1015 RF00.0/000.0
YMHB 212200Z 30014KT 9999 FEW040 10/M00 Q1015
YMHB 212130Z 33010KT 9999 FEW035 08/02 Q1014
YMHB 212100Z 32009KT 9999 FEW035 SCT100 08/01 Q1014 RF00.0/000.0
YMHB 212030Z 34007KT 9999 FEW030 SCT042 08/01 Q1014 RF00.0/000.0
YMHB 212000Z 36007KT 9999 FEW030 SCT042 07/01 Q1013 RF00.0/000.0
YMHB 211930Z AUTO 34008KT 9999 // NCD 07/01 Q1013 RF00.0/000.0
YMHB 211900Z AUTO 34008KT 9999 // NCD 08/01 Q1012 RF00.0/000.0
YMHB 211830Z AUTO 33007KT 9999 // NCD 07/02 Q1012 RF00.0/000.0
YMHB 211800Z AUTO 31008KT 9999 // NCD 08/01 Q1011 RF00.0/000.0
YMHB 211730Z AUTO 29011KT 9999 // NCD 09/01 Q1011 RF00.0/000.0
YMHB 211700Z AUTO 29016KT 9999 // NCD 09/M00 Q1010 RF00.0/000.0
YMHB 211630Z AUTO 29017KT 9999 // NCD 09/00 Q1010 RF00.0/000.0
YMHB 211600Z AUTO 29018KT 9999 // NCD 09/M00 Q1009 RF00.0/000.0
YMHB 211530Z AUTO 30018KT 9999 // NCD 09/M00 Q1009 RF00.0/000.0
YMHB 211500Z AUTO 30017KT 9999 // NCD 10/M00 Q1009 RF00.0/000.0
YMHB 211430Z AUTO 29014KT 9999 // SCT044 SCT052 10/M00 Q1009
YMHB 211400Z AUTO 30015KT 9999 // SCT044 BKN052 10/M00 Q1009
YMHB 211330Z 30017G27KT 9999 FEW048 10/M00 Q1008 RF00.0/000.0
YMHB 211302Z 31018G28KT 9999 FEW048 10/00 Q1007 RF00/0/000/0
YMHB 211230Z 32021KT 9999 SCT048 11/00 Q1006
YMHB 211215Z 33015G27KT 9999 SCT048 11/00 Q1006 RF00/0/000/0
YMHB 211200Z 33013G23KT 9999 SCT048 11/00 Q1006 RF00.0/000.0
YMHB 211130Z 31025G35KT 9999 SCT049 12/00 Q1005 RF00.0/000.0
YMHB 211100Z 31018G28KT 9999 SCT045 12/01 Q1004 RF00.0/000.0
YMHB 211030Z 33017G29KT 9999 SCT045 13/04 Q1002 RF00.0/000.0
YMHB 211000Z 33025G35KT CAVOK 15/04 Q1001
YMHB 210949Z 33015G32KT 9999 FEW055 16/04 Q1000 RF00/0/000/0
YMHB 210930Z 35014KT 9999 FEW035 SCT055 15/08 Q0999 RF00.0/000.0
YMHB 210900Z 35015KT 9999 FEW038 SCT240 15/08 Q0998 RF00.0/000.0
YMHB 210842Z 35018G28KT 9999 FEW038 SCT225 15/07 Q0998 RF00.0/000.0
YMHB 210830Z 36019KT 9999 FEW042 SCT120 BKN225 16/07 Q0998 RF00.0/000.0
YMHB 210800Z 36019G31KT 9999 FEW040 SCT120 BKN235 16/07 Q0999
YMHB 210732Z 35015G26KT 9999 FEW040 SCT110 BKN135 17/08 Q0999
YMHB 210706Z 36019G29KT 9999 -SHRA SCT040 SCT110 18/10 Q1000
YMHB 210630Z 35021G34KT 9999 FEW040 SCT130 BKN170 18/10 Q0999
YMHB 210600Z 35017G27KT 9999 FEW042 SCT115 BKN145 18/09 Q0999
YMHB 210530Z 35017G29KT 9999 VCSH FEW040 BKN120 19/10 Q0999
YMHB 210510Z 01017G28KT 9999 VCSH FEW040 BKN135 19/10 Q1000
YMHB 210500Z 36017KT 9999 -SHRA FEW040 BKN100 19/11 Q1001
YMHB 210446Z 35015G25KT 9999 -SHRA SCT040 BKN098 20/11 Q1001
YMHB 210430Z 34013KT 9999 VCSH SCT040 BKN120 20/12 Q1001 RF00.0/000.0
YMHB 210411Z 33015KT 9999 VCSH FEW040 BKN110 20/12 Q1001 RF00/0/000/0
YMHB 210400Z AUTO 02008KT 9999 // BKN110 20/12 Q1001
YMHB 210330Z 31003KT 9999 FEW045 SCT150 BKN250 18/12 Q1001 RF00.0/000.0
YMHB 210300Z 15003KT 9999 FEW040 SCT190 BKN250 16/12 Q1002 RF00.0/000.0
YMHB 210230Z 16005KT 9999 FEW017 BKN190 16/12 Q1003 RF00.0/000.0
YMHB 210200Z 14007KT 9999 FEW017 BKN200 16/12 Q1004 RF00.0/000.0
YMHB 210130Z 14005KT 9999 FEW017 BKN200 17/12 Q1005 RF00.0/000.0
YMHB 210100Z 17003KT 9999 FEW017 SCT130 BKN250 16/12 Q1005 RF00.0/000.0
YMHB 210030Z 18004KT 9999 FEW015 SCT130 BKN250 16/12 Q1006 RF00.0/000.0
YMHB 210000Z 13003KT 9999 FEW015 SCT190 BKN250 15/12 Q1006 RF00.0/000.0
YMHB 202330Z 07001KT 9999 FEW015 BKN200 15/12 Q1007 RF00.0/000.0
YMHB 202300Z 14003KT 9999 FEW010 BKN190 15/11 Q1007 RF00.0/000.0
YMHB 202230Z 04004KT 9999 FEW010 BKN190 14/12 Q1007 RF00.0/000.0
YMHB 202200Z 01006KT 9999 FEW010 BKN190 14/11 Q1008 RF00.0/000.0
YMHB 202130Z 01005KT 9999 FEW010 BKN190 14/11 Q1008 RF00.0/000.0